CheckWX is a tool to help pilots better visualize weather data.  It is not intended as a substitute for an official pre-flight weather briefing.

05:39:25 UTC

EFVA METAR
Vaasa Airport
Vaasa, Finland
Current

19 mins ago

EFVA 180520Z AUTO 24009KT 210V280 CAVOK 16/11 Q1010
Observed
Jun-18 @ 05:20 UTC
Wind
  • 240° at 9 KTS
Visibility
10,000+ meters
Flight Rules
VFR
Cloud Levels
  • Clear skies
Temperature
16°C / 61°F
Dewpoint
11°C / 52°F
Humidity
72%
Altimeter
29.82" Hg
Pressure
1009.92 hPa
Previous

49 mins ago

EFVA 180450Z AUTO 24007KT CAVOK 16/12 Q1010
Observed
Jun-18 @ 04:50 UTC
Wind
  • 240° at 7 KTS
Visibility
10,000+ meters
Flight Rules
VFR
Cloud Levels
  • Clear skies
Temperature
16°C / 61°F
Dewpoint
12°C / 54°F
Humidity
77%
Altimeter
29.82" Hg
Pressure
1009.92 hPa
Previous

1 hour ago

EFVA 180420Z AUTO 24007KT 220V280 CAVOK 16/12 Q1009
Observed
Jun-18 @ 04:20 UTC
Wind
  • 240° at 7 KTS
Visibility
10,000+ meters
Flight Rules
VFR
Cloud Levels
  • Clear skies
Temperature
16°C / 61°F
Dewpoint
12°C / 54°F
Humidity
77%
Altimeter
29.79" Hg
Pressure
1008.92 hPa